Time;durP1;ratioP1;P1;durP2;ratioP2;P2;SDS_P1;SDS_P2;PMS_P1;PMS_P2;Temp;Humidity;BMP_temperature;BMP_pressure;BME280_temperature;BME280_humidity;BME280_pressure;Samples;Min_cycle;Max_cycle;Signal;HPM_P1;HPM_P2
2021/12/17 00:00:36;;;;;;;11.10;5.07;;;6.00;99.90;;;;;;5105499;28;20265;-51
2021/12/17 00:06:07;;;;;;;9.20;5.03;;;5.90;99.90;;;;;;5122467;28;20188;-48
2021/12/17 00:08:54;;;;;;;9.63;5.13;;;5.90;99.90;;;;;;5121234;28;20195;-56
2021/12/17 00:11:21;;;;;;;9.60;5.27;;;5.90;99.90;;;;;;5103788;28;20216;-52
2021/12/17 00:13:48;;;;;;;8.17;4.50;;;6.00;99.90;;;;;;5121613;28;20188;-48
2021/12/17 00:16:23;;;;;;;10.67;6.23;;;6.00;99.90;;;;;;5104781;28;20192;-51
2021/12/17 00:19:24;;;;;;;11.10;5.20;;;6.00;99.90;;;;;;5122193;28;20278;-53
2021/12/17 00:48:59;;;;;;;11.47;5.03;;;5.10;99.90;;;;;;5126440;27;20600;-58
2021/12/17 00:54:02;;;;;;;10.67;6.40;;;4.90;99.90;;;;;;5126224;27;20219;-59
2021/12/17 00:56:29;;;;;;;23.70;11.70;;;4.90;99.90;;;;;;5108834;27;20184;-52
2021/12/17 00:58:56;;;;;;;11.07;5.30;;;4.80;99.90;;;;;;5107993;27;20233;-48
2021/12/17 01:01:24;;;;;;;10.97;4.43;;;4.70;99.90;;;;;;5108749;27;20208;-45
2021/12/17 01:03:50;;;;;;;8.93;4.73;;;4.70;99.90;;;;;;5124711;27;20331;-53
2021/12/17 01:06:17;;;;;;;8.77;5.10;;;4.70;99.90;;;;;;5107871;27;20227;-52
2021/12/17 01:08:43;;;;;;;9.13;5.50;;;4.60;99.90;;;;;;5109586;27;20188;-57
2021/12/17 01:11:09;;;;;;;13.07;5.13;;;4.60;99.90;;;;;;5108133;27;20255;-58
2021/12/17 01:13:37;;;;;;;6.97;4.47;;;4.50;99.90;;;;;;5108646;27;20276;-57
2021/12/17 01:16:03;;;;;;;9.07;5.47;;;4.50;99.90;;;;;;5107846;27;20189;-57
2021/12/17 01:18:44;;;;;;;8.90;5.53;;;4.50;99.90;;;;;;5108098;27;20234;-55
2021/12/17 01:43:39;;;;;;;11.53;4.97;;;4.20;99.90;;;;;;4982910;28;20231;-56
2021/12/17 01:46:07;;;;;;;9.97;4.70;;;4.10;99.90;;;;;;4983502;28;20349;-50
2021/12/17 02:00:06;;;;;;;4.60;4.13;;;4.30;99.90;;;;;;4946621;28;20235;-53
2021/12/17 02:02:40;;;;;;;6.87;4.60;;;4.30;99.90;;;;;;4986347;28;20202;-55
2021/12/17 02:05:07;;;;;;;3.60;3.13;;;4.30;99.90;;;;;;5006375;28;20188;-47
2021/12/17 02:07:32;;;;;;;6.40;4.37;;;4.30;99.90;;;;;;5005964;28;20205;-52
2021/12/17 02:12:59;;;;;;;6.73;4.37;;;4.20;99.90;;;;;;5022022;28;20207;-57
2021/12/17 02:21:22;;;;;;;8.80;4.03;;;4.40;99.90;;;;;;5123717;27;20226;-52
2021/12/17 02:32:02;;;;;;;4.20;3.43;;;4.50;99.90;;;;;;5123381;27;20176;-51
2021/12/17 02:37:51;;;;;;;5.60;3.27;;;4.40;99.90;;;;;;5125068;27;20227;-54
2021/12/17 02:46:06;;;;;;;6.30;4.17;;;4.20;99.90;;;;;;5126089;27;20284;-47
2021/12/17 02:48:33;;;;;;;6.57;4.00;;;4.20;99.90;;;;;;5108039;27;20275;-52
2021/12/17 02:51:22;;;;;;;7.33;3.67;;;4.10;99.90;;;;;;5124357;27;20244;-54
2021/12/17 02:53:48;;;;;;;4.73;3.50;;;4.00;99.90;;;;;;5107071;27;20236;-47
2021/12/17 02:56:14;;;;;;;3.87;2.40;;;3.70;99.90;;;;;;5107172;27;20185;-47
2021/12/17 02:58:40;;;;;;;3.73;2.70;;;3.70;99.90;;;;;;5107456;27;20188;-49
2021/12/17 03:01:08;;;;;;;3.43;3.13;;;3.50;99.90;;;;;;5107743;27;20216;-52
2021/12/17 03:03:37;;;;;;;4.27;3.00;;;3.30;99.90;;;;;;5107792;27;20189;-52
2021/12/17 03:06:04;;;;;;;5.60;3.53;;;3.30;99.90;;;;;;5107583;27;20187;-50
2021/12/17 03:08:30;;;;;;;4.47;3.27;;;3.40;99.90;;;;;;5107884;27;20184;-56
2021/12/17 03:10:58;;;;;;;5.23;3.23;;;3.40;99.90;;;;;;5106362;27;20196;-47
2021/12/17 03:13:25;;;;;;;5.90;3.67;;;3.40;99.90;;;;;;5106424;27;20181;-52
2021/12/17 03:15:56;;;;;;;6.63;4.00;;;3.40;99.90;;;;;;5106706;27;20284;-51
2021/12/17 03:23:40;;;;;;;8.57;3.27;;;3.50;99.90;;;;;;5123888;27;20184;-59
2021/12/17 03:26:09;;;;;;;5.90;2.90;;;3.60;99.90;;;;;;5106424;27;20233;-60
2021/12/17 03:28:39;;;;;;;3.60;3.17;;;3.40;99.90;;;;;;5106860;28;20180;-50
2021/12/17 03:31:06;;;;;;;3.87;2.50;;;3.40;99.90;;;;;;5106467;28;20192;-49
2021/12/17 03:33:32;;;;;;;3.30;2.10;;;3.40;99.90;;;;;;5107108;28;20215;-57
2021/12/17 03:35:58;;;;;;;4.67;3.67;;;3.30;99.90;;;;;;5106594;28;20215;-57
2021/12/17 03:38:24;;;;;;;4.90;2.90;;;3.30;99.90;;;;;;5107590;28;20287;-54
2021/12/17 03:40:58;;;;;;;5.53;3.27;;;3.30;99.90;;;;;;5107088;28;20240;-50
2021/12/17 03:43:30;;;;;;;10.30;3.47;;;3.30;99.90;;;;;;5106119;28;20188;-57
2021/12/17 03:45:56;;;;;;;5.40;3.20;;;3.50;99.90;;;;;;5106638;28;20192;-46
2021/12/17 03:48:22;;;;;;;9.23;2.90;;;3.60;99.90;;;;;;5107295;28;20239;-50
2021/12/17 03:50:48;;;;;;;6.97;4.07;;;3.50;99.90;;;;;;5107018;28;20215;-50
2021/12/17 03:53:13;;;;;;;4.63;2.90;;;3.50;99.90;;;;;;5106853;28;20289;-52
2021/12/17 03:55:39;;;;;;;5.97;4.00;;;3.50;99.90;;;;;;5106615;28;20188;-49
2021/12/17 03:58:05;;;;;;;7.57;3.87;;;3.50;99.90;;;;;;5106850;28;20188;-51
2021/12/17 04:00:31;;;;;;;3.50;2.70;;;3.60;99.90;;;;;;5106222;28;20224;-48
2021/12/17 04:02:57;;;;;;;2.27;2.07;;;3.60;99.90;;;;;;5106375;28;20188;-54
2021/12/17 04:05:24;;;;;;;4.47;2.80;;;3.60;99.90;;;;;;5105496;27;20188;-49
2021/12/17 04:07:50;;;;;;;4.27;3.07;;;3.60;99.90;;;;;;5115643;27;20206;-53
2021/12/17 04:10:18;;;;;;;5.60;3.33;;;3.70;99.90;;;;;;5119934;27;20219;-47
2021/12/17 04:13:01;;;;;;;10.00;4.40;;;3.70;99.90;;;;;;5128871;27;20188;-49
2021/12/17 04:15:36;;;;;;;4.07;3.33;;;3.70;99.90;;;;;;5140031;27;20172;-53
2021/12/17 04:18:07;;;;;;;5.40;3.97;;;3.60;99.90;;;;;;5114651;27;20173;-48
2021/12/17 04:20:34;;;;;;;5.77;3.93;;;3.60;99.90;;;;;;5110534;27;20214;-54
2021/12/17 04:23:00;;;;;;;3.10;2.80;;;3.60;99.90;;;;;;5120023;27;20180;-44
2021/12/17 04:25:28;;;;;;;7.13;3.57;;;3.60;99.90;;;;;;5118930;27;20269;-46
2021/12/17 04:27:55;;;;;;;7.20;3.87;;;3.50;99.90;;;;;;5118785;27;20179;-47
2021/12/17 04:30:21;;;;;;;4.73;3.73;;;3.60;99.90;;;;;;5120212;27;20213;-49
2021/12/17 04:32:46;;;;;;;5.30;3.50;;;3.60;99.90;;;;;;5118575;27;20184;-60
2021/12/17 04:35:12;;;;;;;4.70;3.37;;;3.50;99.90;;;;;;5117980;27;20180;-51
2021/12/17 04:37:38;;;;;;;9.00;3.60;;;3.50;99.90;;;;;;5120172;27;20208;-50
2021/12/17 04:40:05;;;;;;;6.73;2.90;;;3.50;99.90;;;;;;5120214;27;20380;-55
2021/12/17 04:44:59;;;;;;;5.23;3.23;;;3.60;99.90;;;;;;5136161;27;20211;-56
2021/12/17 04:58:04;;;;;;;7.10;3.70;;;3.60;99.90;;;;;;5128030;27;20181;-54
2021/12/17 05:00:30;;;;;;;6.57;3.23;;;3.70;99.90;;;;;;5120353;27;20208;-55
2021/12/17 05:02:59;;;;;;;5.00;2.87;;;3.70;99.90;;;;;;5118571;27;20180;-49
2021/12/17 05:05:30;;;;;;;9.13;3.63;;;3.80;99.90;;;;;;5118084;27;20227;-57
2021/12/17 05:08:04;;;;;;;5.57;3.83;;;3.70;99.90;;;;;;5135751;27;20196;-56
2021/12/17 05:19:17;;;;;;;4.33;3.10;;;3.80;99.90;;;;;;5131322;27;20187;-49
2021/12/17 05:21:42;;;;;;;5.80;3.70;;;3.60;99.90;;;;;;5143255;27;20283;-48
2021/12/17 05:24:08;;;;;;;3.70;2.87;;;3.60;99.90;;;;;;5118374;27;20279;-59
2021/12/17 05:26:34;;;;;;;4.80;3.30;;;3.70;99.90;;;;;;5116719;27;20207;-54
2021/12/17 05:29:00;;;;;;;6.40;3.40;;;3.70;99.90;;;;;;5117506;27;20172;-60
2021/12/17 05:31:25;;;;;;;6.47;3.47;;;3.70;99.90;;;;;;5118835;27;20172;-57
2021/12/17 05:33:54;;;;;;;5.10;3.40;;;3.70;99.90;;;;;;5117656;27;20164;-51
2021/12/17 05:36:21;;;;;;;5.50;3.23;;;3.80;99.90;;;;;;5119866;27;20248;-51
2021/12/17 05:38:47;;;;;;;5.93;3.43;;;3.80;99.90;;;;;;5119733;27;20179;-54
2021/12/17 05:41:13;;;;;;;4.37;3.23;;;3.80;99.90;;;;;;5117124;27;20200;-56
2021/12/17 05:43:39;;;;;;;4.87;1.83;;;3.70;99.90;;;;;;5119106;27;20184;-52
2021/12/17 05:46:12;;;;;;;3.30;3.07;;;3.70;99.90;;;;;;5119610;27;20180;-59
2021/12/17 05:48:40;;;;;;;6.70;3.47;;;3.80;99.90;;;;;;5114635;27;20196;-55
2021/12/17 05:51:09;;;;;;;10.83;4.23;;;3.80;99.90;;;;;;5117130;27;20223;-52
2021/12/17 05:53:36;;;;;;;5.37;3.53;;;3.70;99.90;;;;;;5118439;27;20310;-59
2021/12/17 05:56:02;;;;;;;9.23;3.13;;;3.80;99.90;;;;;;5118907;27;20205;-58
2021/12/17 05:58:30;;;;;;;6.40;4.10;;;3.80;99.90;;;;;;5118910;27;20184;-54
2021/12/17 06:00:56;;;;;;;4.87;3.10;;;3.60;99.90;;;;;;5116554;27;20200;-52
2021/12/17 06:03:23;;;;;;;4.83;3.60;;;3.40;99.90;;;;;;5108820;27;20229;-57
2021/12/17 06:05:49;;;;;;;4.43;2.63;;;3.40;99.90;;;;;;5107413;27;20265;-50
2021/12/17 06:08:17;;;;;;;4.60;2.67;;;3.20;99.90;;;;;;5108089;27;20219;-56
2021/12/17 06:10:43;;;;;;;7.87;4.33;;;3.20;99.90;;;;;;5104409;27;20180;-56
2021/12/17 06:13:10;;;;;;;6.83;2.50;;;3.30;99.90;;;;;;5107869;27;20185;-57
2021/12/17 06:15:36;;;;;;;7.43;3.23;;;3.30;99.90;;;;;;5107268;27;20180;-51
2021/12/17 06:18:02;;;;;;;6.67;3.63;;;3.30;99.90;;;;;;5107595;27;20271;-54
2021/12/17 06:20:27;;;;;;;2.63;1.87;;;3.30;99.90;;;;;;5107781;27;20204;-57
2021/12/17 06:22:54;;;;;;;5.93;3.07;;;3.30;99.90;;;;;;5107672;27;20219;-53
2021/12/17 06:25:20;;;;;;;6.90;3.13;;;3.30;99.90;;;;;;5108380;27;20177;-52
2021/12/17 06:27:46;;;;;;;4.27;3.33;;;3.20;99.90;;;;;;5107146;27;20228;-57
2021/12/17 06:30:15;;;;;;;3.50;2.77;;;2.90;99.90;;;;;;5107342;27;20185;-53
2021/12/17 06:32:42;;;;;;;3.93;2.63;;;2.90;99.90;;;;;;5107058;27;20172;-48
2021/12/17 06:35:09;;;;;;;3.37;2.33;;;2.90;99.90;;;;;;5107333;27;20181;-48
2021/12/17 06:37:40;;;;;;;6.43;3.57;;;2.90;99.90;;;;;;5107265;27;20185;-52
2021/12/17 06:40:07;;;;;;;2.73;2.10;;;2.60;99.90;;;;;;5105502;27;20308;-47
2021/12/17 06:42:33;;;;;;;4.10;3.37;;;2.60;99.90;;;;;;5107355;27;20176;-49
2021/12/17 06:45:04;;;;;;;3.67;2.83;;;2.50;99.90;;;;;;5106527;27;20192;-50
2021/12/17 06:47:33;;;;;;;7.10;2.83;;;2.60;99.90;;;;;;5106946;27;20180;-58
2021/12/17 07:22:21;;;;;;;4.00;1.47;;;2.20;99.90;;;;;;5120589;27;20208;-50
2021/12/17 07:33:22;;;;;;;3.10;1.73;;;2.30;99.90;;;;;;5123200;27;20193;-49
2021/12/17 07:35:48;;;;;;;2.07;1.77;;;2.10;99.90;;;;;;5120652;28;20196;-51
2021/12/17 07:41:00;;;;;;;4.00;2.03;;;2.10;99.90;;;;;;5123342;27;20212;-51
2021/12/17 07:43:30;;;;;;;3.07;1.57;;;2.20;99.90;;;;;;5111052;27;20176;-52
2021/12/17 07:45:57;;;;;;;5.13;2.40;;;2.30;99.90;;;;;;5110063;27;20183;-46
2021/12/17 07:48:23;;;;;;;3.20;2.00;;;2.40;99.90;;;;;;5123579;27;20264;-58
2021/12/17 07:50:50;;;;;;;1.20;0.97;;;2.40;99.90;;;;;;5109609;27;20211;-48
2021/12/17 07:53:17;;;;;;;2.53;2.03;;;2.40;99.90;;;;;;5107173;27;20224;-52
2021/12/17 07:55:44;;;;;;;1.70;1.60;;;2.50;99.90;;;;;;5111099;27;20184;-50
2021/12/17 07:58:10;;;;;;;1.73;1.63;;;2.60;99.90;;;;;;5109625;27;20212;-54
2021/12/17 08:00:36;;;;;;;2.60;1.73;;;2.40;99.90;;;;;;5110940;27;20243;-51
2021/12/17 08:03:02;;;;;;;2.90;2.20;;;2.60;99.90;;;;;;5110304;27;20188;-58
2021/12/17 08:05:28;;;;;;;6.20;2.10;;;2.60;99.90;;;;;;5110465;27;20188;-48
2021/12/17 08:07:54;;;;;;;2.60;1.83;;;2.80;99.90;;;;;;5110205;27;20273;-47
2021/12/17 08:10:20;;;;;;;3.20;2.13;;;2.80;99.90;;;;;;5110770;27;20184;-48
2021/12/17 08:12:45;;;;;;;2.80;1.87;;;2.80;99.90;;;;;;5110615;27;20189;-51
2021/12/17 08:15:12;;;;;;;2.70;1.80;;;2.90;99.90;;;;;;5111261;27;20185;-52
2021/12/17 08:28:28;;;;;;;1.37;1.27;;;2.30;99.90;;;;;;5127273;27;20223;-48
2021/12/17 08:30:54;;;;;;;1.33;1.23;;;2.30;99.90;;;;;;5110117;27;20219;-49
2021/12/17 08:33:21;;;;;;;4.27;1.53;;;2.40;99.90;;;;;;5110217;27;20226;-49
2021/12/17 08:35:47;;;;;;;3.33;2.90;;;2.40;99.90;;;;;;5109971;27;20228;-52
2021/12/17 08:38:13;;;;;;;2.10;1.60;;;2.30;99.90;;;;;;5109684;27;20186;-54
2021/12/17 08:40:41;;;;;;;1.40;1.23;;;2.30;99.90;;;;;;5109811;27;20307;-47
2021/12/17 08:43:07;;;;;;;5.20;2.13;;;2.40;99.90;;;;;;5109958;27;20203;-50
2021/12/17 08:45:33;;;;;;;2.63;1.73;;;2.50;99.90;;;;;;5109664;27;20176;-55
2021/12/17 08:47:59;;;;;;;3.70;2.43;;;2.40;99.90;;;;;;5109926;27;20180;-48
2021/12/17 08:50:25;;;;;;;3.50;2.23;;;2.40;99.90;;;;;;5109496;27;20185;-48
2021/12/17 08:52:51;;;;;;;7.67;2.33;;;2.30;99.90;;;;;;5109634;27;20275;-46
2021/12/17 08:55:17;;;;;;;5.33;1.60;;;2.20;99.90;;;;;;5109386;27;20191;-52
2021/12/17 08:57:43;;;;;;;2.73;2.47;;;2.30;99.90;;;;;;5109327;27;20216;-51
2021/12/17 09:00:11;;;;;;;14.17;7.60;;;2.20;99.90;;;;;;5108593;27;20216;-54
2021/12/17 09:02:38;;;;;;;6.53;1.77;;;2.20;99.90;;;;;;5110056;27;20188;-48
2021/12/17 09:05:05;;;;;;;1.80;1.50;;;2.20;99.90;;;;;;5109934;27;20196;-51
2021/12/17 09:07:33;;;;;;;5.40;2.43;;;2.20;99.90;;;;;;5109391;27;20275;-58
2021/12/17 09:09:59;;;;;;;5.23;1.97;;;2.50;99.90;;;;;;5109752;27;20202;-56
2021/12/17 09:12:25;;;;;;;1.33;1.10;;;2.60;99.90;;;;;;5108199;27;20188;-54
2021/12/17 09:14:51;;;;;;;1.77;1.67;;;2.70;99.90;;;;;;5108330;27;20245;-50
2021/12/17 09:17:19;;;;;;;3.80;1.53;;;2.70;99.90;;;;;;5107932;27;20199;-47
2021/12/17 09:19:45;;;;;;;4.03;2.77;;;2.70;99.90;;;;;;5108751;27;20550;-48
2021/12/17 09:22:11;;;;;;;2.37;1.83;;;2.80;99.90;;;;;;5108129;27;20189;-49
2021/12/17 09:24:37;;;;;;;8.43;2.13;;;2.40;99.90;;;;;;5108297;27;20184;-51
2021/12/17 09:27:03;;;;;;;3.80;1.90;;;2.50;99.90;;;;;;5108676;27;20173;-48
2021/12/17 09:29:29;;;;;;;2.20;1.83;;;2.60;99.90;;;;;;5108168;27;20169;-52
2021/12/17 09:31:56;;;;;;;1.93;1.83;;;2.80;99.90;;;;;;5108162;27;20177;-48
2021/12/17 09:34:22;;;;;;;3.87;1.60;;;2.70;99.90;;;;;;5107553;27;20187;-47
2021/12/17 09:36:48;;;;;;;2.43;1.97;;;2.60;99.90;;;;;;5107713;27;20216;-50
2021/12/17 09:39:14;;;;;;;2.27;1.80;;;2.70;99.90;;;;;;5102601;27;20272;-53
2021/12/17 09:41:46;;;;;;;2.10;1.37;;;2.80;99.90;;;;;;5107594;27;20220;-54
2021/12/17 09:44:16;;;;;;;2.50;1.77;;;2.90;99.90;;;;;;5108465;27;20180;-49
2021/12/17 09:46:44;;;;;;;3.00;1.30;;;2.90;99.90;;;;;;5108014;27;20165;-47
2021/12/17 09:49:10;;;;;;;7.23;3.37;;;2.50;99.90;;;;;;5107672;27;20165;-48
2021/12/17 09:51:37;;;;;;;4.77;2.20;;;2.70;99.90;;;;;;5107418;27;20180;-52
2021/12/17 09:54:03;;;;;;;6.20;2.80;;;2.70;99.90;;;;;;5107548;27;20303;-56
2021/12/17 09:56:29;;;;;;;2.23;1.67;;;2.90;99.90;;;;;;5106981;27;20176;-51
2021/12/17 09:58:55;;;;;;;3.27;2.10;;;2.90;99.90;;;;;;5108114;27;20173;-49
2021/12/17 10:01:21;;;;;;;3.67;2.23;;;2.70;99.90;;;;;;5107822;27;20227;-49
2021/12/17 10:04:27;;;;;;;4.23;1.80;;;2.90;99.90;;;;;;5106703;27;20195;-52
2021/12/17 10:07:23;;;;;;;2.03;1.87;;;2.90;99.90;;;;;;5124289;27;21074;-54
2021/12/17 10:09:52;;;;;;;2.03;1.77;;;3.20;99.90;;;;;;5107767;27;20180;-49
2021/12/17 10:12:26;;;;;;;4.27;2.10;;;3.10;99.90;;;;;;5107426;27;20249;-51
2021/12/17 10:15:12;;;;;;;2.20;1.93;;;3.30;99.90;;;;;;5107488;27;20234;-49
2021/12/17 10:17:52;;;;;;;3.30;1.87;;;3.30;99.90;;;;;;5106380;27;20184;-47
2021/12/17 10:20:18;;;;;;;2.90;2.67;;;3.10;99.90;;;;;;5104816;27;20216;-50
2021/12/17 10:22:46;;;;;;;4.97;2.47;;;3.30;99.90;;;;;;5107108;27;20188;-52
2021/12/17 10:25:13;;;;;;;2.23;1.90;;;3.30;99.90;;;;;;5107301;27;20187;-55
2021/12/17 10:27:42;;;;;;;2.27;2.07;;;3.30;99.90;;;;;;5107182;27;20181;-58
2021/12/17 10:30:16;;;;;;;4.33;2.93;;;3.10;99.90;;;;;;5106023;27;20237;-57
2021/12/17 10:32:48;;;;;;;5.17;3.00;;;3.20;99.90;;;;;;5105597;27;20187;-47
2021/12/17 10:35:17;;;;;;;3.53;2.93;;;3.20;99.90;;;;;;5103500;27;20573;-47
2021/12/17 10:37:58;;;;;;;3.00;2.63;;;3.50;99.90;;;;;;5107397;27;20575;-51
2021/12/17 10:40:55;;;;;;;2.67;2.27;;;3.60;99.90;;;;;;5106212;27;20208;-50
2021/12/17 10:43:31;;;;;;;6.67;3.13;;;3.60;99.90;;;;;;5104599;27;20180;-46
2021/12/17 10:46:06;;;;;;;4.97;1.80;;;3.50;99.90;;;;;;5104549;27;20199;-52
2021/12/17 10:48:49;;;;;;;4.57;1.73;;;3.20;99.90;;;;;;5121533;27;20180;-50
2021/12/17 10:51:23;;;;;;;2.20;2.00;;;3.20;99.90;;;;;;5107052;27;20177;-45
2021/12/17 10:53:55;;;;;;;3.47;2.17;;;3.50;99.90;;;;;;5118304;27;20270;-47
2021/12/17 10:56:26;;;;;;;4.47;2.23;;;3.70;99.90;;;;;;5123146;27;20275;-53
2021/12/17 10:58:55;;;;;;;4.70;2.57;;;3.70;99.90;;;;;;5104344;27;20240;-45
2021/12/17 11:01:33;;;;;;;6.37;3.13;;;3.80;99.90;;;;;;5100005;27;20220;-52
2021/12/17 11:04:31;;;;;;;5.37;2.40;;;3.80;99.90;;;;;;5104502;28;20223;-53
2021/12/17 11:07:04;;;;;;;3.17;2.07;;;3.80;99.90;;;;;;5107253;27;20181;-48
2021/12/17 11:09:57;;;;;;;7.23;4.40;;;3.70;99.90;;;;;;5106235;27;20264;-54
2021/12/17 11:12:23;;;;;;;4.47;2.73;;;3.80;99.90;;;;;;5106779;27;20176;-48
2021/12/17 11:14:50;;;;;;;6.83;3.80;;;3.90;99.90;;;;;;5100408;27;20184;-56
2021/12/17 11:17:21;;;;;;;4.93;2.37;;;3.90;99.90;;;;;;5124738;27;20187;-50
2021/12/17 11:19:49;;;;;;;3.43;3.13;;;3.80;99.90;;;;;;5130822;27;20204;-57
2021/12/17 11:22:17;;;;;;;3.60;2.53;;;3.60;99.90;;;;;;5110717;27;20196;-46
2021/12/17 11:24:43;;;;;;;3.37;2.33;;;3.70;99.90;;;;;;5138400;27;20191;-54
2021/12/17 11:27:09;;;;;;;4.87;2.63;;;3.60;99.90;;;;;;5101341;27;20189;-48
2021/12/17 11:29:35;;;;;;;6.37;3.23;;;3.60;99.90;;;;;;5103140;27;20189;-54
2021/12/17 11:32:04;;;;;;;4.43;3.27;;;3.50;99.90;;;;;;5137137;27;20184;-53
2021/12/17 11:34:32;;;;;;;2.57;1.73;;;3.60;99.90;;;;;;5104335;27;20376;-49
2021/12/17 11:37:00;;;;;;;5.23;2.77;;;3.70;99.90;;;;;;5103362;27;20180;-54
2021/12/17 11:39:31;;;;;;;4.33;2.63;;;3.60;99.90;;;;;;5100520;27;20595;-57
2021/12/17 11:42:18;;;;;;;3.60;2.97;;;3.40;99.90;;;;;;5129762;27;20208;-50
2021/12/17 11:45:23;;;;;;;3.53;3.23;;;3.60;99.90;;;;;;5097598;27;20197;-45
2021/12/17 11:47:34;;;;;;;6.23;4.13;;;3.60;99.90;;;;;;5118896;27;20287;-51
2021/12/17 11:50:05;;;;;;;1.83;1.70;;;3.70;99.90;;;;;;5104975;27;20204;-46
2021/12/17 11:52:44;;;;;;;3.90;2.50;;;3.80;99.90;;;;;;5096930;27;20216;-52
2021/12/17 11:55:36;;;;;;;7.50;2.93;;;3.80;99.90;;;;;;5122373;27;20180;-47
2021/12/17 11:58:06;;;;;;;7.50;4.10;;;3.60;99.90;;;;;;5104594;27;20179;-56
2021/12/17 12:00:41;;;;;;;10.13;3.47;;;3.70;99.90;;;;;;5102463;27;20212;-50
2021/12/17 12:03:23;;;;;;;5.43;3.57;;;3.80;99.90;;;;;;5103662;27;20275;-54
2021/12/17 12:05:53;;;;;;;8.10;4.60;;;3.80;99.90;;;;;;5104100;28;20187;-56
2021/12/17 12:08:50;;;;;;;4.43;2.77;;;3.80;99.90;;;;;;5096600;27;20248;-56
2021/12/17 12:11:27;;;;;;;3.60;2.30;;;3.60;99.90;;;;;;5103573;27;20169;-57
2021/12/17 12:13:55;;;;;;;3.47;2.27;;;3.70;99.90;;;;;;5134453;27;20188;-58
2021/12/17 12:16:30;;;;;;;6.80;3.43;;;3.70;99.90;;;;;;5129156;27;20199;-45
2021/12/17 12:19:16;;;;;;;3.63;2.67;;;3.80;99.90;;;;;;5135275;27;20286;-50
2021/12/17 12:22:04;;;;;;;3.97;2.57;;;3.90;99.90;;;;;;5102511;27;20220;-52
2021/12/17 12:24:30;;;;;;;9.63;4.57;;;3.90;99.90;;;;;;5094894;27;20192;-51
2021/12/17 12:26:55;;;;;;;3.97;3.37;;;3.90;99.90;;;;;;5100279;27;20184;-49
2021/12/17 12:29:24;;;;;;;4.90;3.03;;;3.90;99.90;;;;;;5105846;27;20187;-52
2021/12/17 12:31:51;;;;;;;5.10;3.43;;;3.90;99.90;;;;;;5106232;27;20192;-48
2021/12/17 12:34:29;;;;;;;7.47;4.13;;;3.70;99.90;;;;;;5103674;27;20184;-48
2021/12/17 12:37:09;;;;;;;5.23;3.23;;;3.80;99.90;;;;;;5106705;27;20218;-48
2021/12/17 12:39:48;;;;;;;7.67;3.23;;;3.90;99.90;;;;;;5107447;27;20169;-49
2021/12/17 12:42:17;;;;;;;5.73;3.50;;;3.90;99.90;;;;;;5109753;27;20330;-47
2021/12/17 12:44:42;;;;;;;5.80;3.33;;;3.80;99.90;;;;;;5108819;27;20187;-50
2021/12/17 12:47:20;;;;;;;5.77;3.47;;;3.80;99.90;;;;;;5108864;27;20180;-49
2021/12/17 12:49:54;;;;;;;6.37;3.10;;;3.50;99.90;;;;;;5108020;27;20185;-47
2021/12/17 12:52:21;;;;;;;4.50;2.70;;;3.50;99.90;;;;;;5107865;27;20225;-50
2021/12/17 12:54:52;;;;;;;6.67;3.97;;;3.80;99.90;;;;;;5109670;27;20263;-49
2021/12/17 12:57:32;;;;;;;5.90;2.80;;;3.70;99.90;;;;;;5123963;27;20173;-44
2021/12/17 13:00:01;;;;;;;5.30;2.97;;;3.60;99.90;;;;;;5106959;27;20168;-49
2021/12/17 13:02:27;;;;;;;6.80;3.80;;;3.60;99.90;;;;;;5108617;27;20192;-46
2021/12/17 13:04:59;;;;;;;5.13;3.33;;;3.70;99.90;;;;;;5108956;27;20199;-55
2021/12/17 13:07:53;;;;;;;4.77;3.17;;;3.80;99.90;;;;;;5109056;27;20188;-48
2021/12/17 13:10:27;;;;;;;5.37;4.07;;;3.90;99.90;;;;;;5104445;27;20189;-55
2021/12/17 13:12:58;;;;;;;4.03;3.23;;;3.90;99.90;;;;;;5109890;27;20223;-53
2021/12/17 13:23:20;;;;;;;6.80;4.03;;;4.20;99.90;;;;;;5125466;27;20185;-47
2021/12/17 13:25:46;;;;;;;7.03;4.10;;;4.20;99.90;;;;;;5109241;27;20219;-44
2021/12/17 13:28:13;;;;;;;8.10;4.17;;;4.20;99.90;;;;;;5108482;27;20208;-51
2021/12/17 13:30:38;;;;;;;2.57;2.33;;;4.30;99.90;;;;;;5109426;27;20189;-54
2021/12/17 13:33:04;;;;;;;5.47;3.30;;;4.20;99.90;;;;;;5109008;27;20200;-48
2021/12/17 13:35:34;;;;;;;4.60;2.40;;;4.20;99.90;;;;;;5108386;27;20181;-45
2021/12/17 13:38:02;;;;;;;3.83;2.60;;;4.20;99.90;;;;;;5109115;27;20188;-45
2021/12/17 13:40:28;;;;;;;4.23;3.23;;;4.20;99.90;;;;;;5108725;27;20212;-47
2021/12/17 13:42:55;;;;;;;6.10;3.10;;;4.20;99.90;;;;;;5108913;27;20188;-44
2021/12/17 13:45:22;;;;;;;3.30;2.60;;;4.10;99.90;;;;;;5108160;27;20214;-44
2021/12/17 13:47:54;;;;;;;5.13;2.80;;;4.10;99.90;;;;;;5108834;27;20283;-44
2021/12/17 13:50:23;;;;;;;3.13;2.03;;;4.10;99.90;;;;;;5108543;27;20199;-50
2021/12/17 13:52:55;;;;;;;4.73;2.73;;;4.10;99.90;;;;;;5108859;27;20310;-45
2021/12/17 13:55:23;;;;;;;4.03;2.50;;;4.00;99.90;;;;;;5108863;27;20181;-53
2021/12/17 13:57:51;;;;;;;4.13;2.83;;;3.90;99.90;;;;;;5108845;27;20184;-45
2021/12/17 14:00:26;;;;;;;4.37;2.07;;;3.90;99.90;;;;;;5109032;27;20212;-48
2021/12/17 14:02:57;;;;;;;3.23;2.33;;;3.80;99.90;;;;;;5108094;27;20305;-45
2021/12/17 14:05:40;;;;;;;2.90;2.70;;;3.70;99.90;;;;;;5108482;27;20200;-45
2021/12/17 14:08:10;;;;;;;2.87;2.17;;;3.70;99.90;;;;;;5108627;27;20249;-50
2021/12/17 14:10:37;;;;;;;1.97;1.77;;;3.80;99.90;;;;;;5109431;27;20256;-44
2021/12/17 14:13:05;;;;;;;3.67;2.33;;;3.70;99.90;;;;;;5108188;27;20185;-47
2021/12/17 14:15:33;;;;;;;1.60;1.50;;;3.70;99.90;;;;;;5106823;27;20219;-47
2021/12/17 14:18:06;;;;;;;3.90;2.67;;;3.70;99.90;;;;;;5107556;27;20192;-49
2021/12/17 14:20:39;;;;;;;2.40;2.20;;;3.80;99.90;;;;;;5107214;27;20224;-45
2021/12/17 14:23:20;;;;;;;2.30;1.73;;;3.80;99.90;;;;;;5108036;27;20184;-51
2021/12/17 14:25:54;;;;;;;4.30;1.80;;;3.70;99.90;;;;;;5107703;27;20180;-45
2021/12/17 14:28:23;;;;;;;2.63;2.40;;;3.70;99.90;;;;;;5107661;27;20211;-48
2021/12/17 14:31:12;;;;;;;2.20;1.60;;;3.70;99.90;;;;;;5108022;27;20177;-58
2021/12/17 14:33:57;;;;;;;3.43;2.20;;;3.70;99.90;;;;;;5107253;27;20300;-56
2021/12/17 14:36:28;;;;;;;2.23;2.03;;;3.70;99.90;;;;;;5107839;27;20189;-56
2021/12/17 14:39:17;;;;;;;5.27;2.80;;;3.60;99.90;;;;;;5107722;27;20219;-55
2021/12/17 14:41:58;;;;;;;3.20;2.43;;;3.60;99.90;;;;;;5107520;27;20220;-46
2021/12/17 14:44:39;;;;;;;3.20;1.70;;;3.70;99.90;;;;;;5107707;27;20189;-51
2021/12/17 14:47:18;;;;;;;2.43;1.90;;;3.80;99.90;;;;;;5107417;27;20196;-56
2021/12/17 15:00:49;;;;;;;2.53;2.30;;;3.90;99.90;;;;;;5125020;27;20200;-50
2021/12/17 15:03:40;;;;;;;2.43;1.87;;;3.80;99.90;;;;;;5106251;27;20199;-48
2021/12/17 15:06:11;;;;;;;3.17;1.80;;;3.70;99.90;;;;;;5107398;27;20187;-53
2021/12/17 15:08:38;;;;;;;2.17;2.03;;;3.70;99.90;;;;;;5107026;27;20184;-57
2021/12/17 15:11:14;;;;;;;4.37;2.53;;;3.70;99.90;;;;;;5107079;27;20260;-45
2021/12/17 15:13:40;;;;;;;2.07;1.90;;;3.70;99.90;;;;;;5107634;27;20192;-54
2021/12/17 15:16:06;;;;;;;2.37;2.07;;;3.70;99.90;;;;;;5106405;27;20185;-58
2021/12/17 15:18:32;;;;;;;1.33;1.33;;;3.70;99.90;;;;;;5106674;27;20204;-54
2021/12/17 15:20:58;;;;;;;3.50;2.17;;;3.70;99.90;;;;;;5106267;28;20258;-49
2021/12/17 15:23:24;;;;;;;3.10;2.73;;;3.50;99.90;;;;;;5107308;28;20275;-53
2021/12/17 15:25:53;;;;;;;2.90;1.43;;;3.50;99.90;;;;;;5107084;28;20188;-55
2021/12/17 15:28:22;;;;;;;3.27;2.30;;;3.50;99.90;;;;;;5107430;27;20181;-58
2021/12/17 15:30:51;;;;;;;3.07;1.57;;;3.60;99.90;;;;;;5107024;27;20195;-48
2021/12/17 15:33:17;;;;;;;2.37;2.17;;;3.50;99.90;;;;;;5106490;28;20188;-50
2021/12/17 15:35:44;;;;;;;2.27;2.17;;;3.50;99.90;;;;;;5106428;28;20200;-56
2021/12/17 15:38:11;;;;;;;1.83;1.33;;;3.60;99.90;;;;;;5106011;28;20698;-54
2021/12/17 15:40:43;;;;;;;3.67;2.33;;;3.60;99.90;;;;;;5106156;28;20312;-44
2021/12/17 15:43:09;;;;;;;2.13;1.93;;;3.60;99.90;;;;;;5106478;28;20185;-48
2021/12/17 15:45:39;;;;;;;2.00;1.80;;;3.60;99.90;;;;;;5107029;28;20199;-55
2021/12/17 15:48:08;;;;;;;4.13;2.50;;;3.50;99.90;;;;;;5106470;28;20187;-51
2021/12/17 15:50:34;;;;;;;3.00;2.20;;;3.50;99.90;;;;;;5106173;28;20196;-44
2021/12/17 15:53:00;;;;;;;2.73;2.20;;;3.50;99.90;;;;;;5106734;28;20234;-54
2021/12/17 15:55:28;;;;;;;4.07;2.80;;;3.50;99.90;;;;;;5140490;27;20192;-47
2021/12/17 15:57:56;;;;;;;3.10;2.10;;;3.60;99.90;;;;;;5106313;28;20200;-48
2021/12/17 16:00:27;;;;;;;3.73;2.17;;;3.50;99.90;;;;;;5105480;28;20223;-54
2021/12/17 16:02:54;;;;;;;2.60;1.47;;;3.50;99.90;;;;;;5108529;27;20295;-51
2021/12/17 16:05:22;;;;;;;3.07;2.40;;;3.60;99.90;;;;;;5106495;27;20236;-46
2021/12/17 16:07:51;;;;;;;3.20;2.47;;;3.50;99.90;;;;;;5109613;27;20280;-54
2021/12/17 16:21:01;;;;;;;4.37;3.20;;;3.50;99.90;;;;;;5116552;27;20223;-58
2021/12/17 16:23:31;;;;;;;3.13;2.93;;;3.50;99.90;;;;;;5113611;27;20176;-47
2021/12/17 16:25:58;;;;;;;3.93;2.53;;;3.50;99.90;;;;;;5131827;27;20180;-48
2021/12/17 16:28:27;;;;;;;2.70;2.47;;;3.50;99.90;;;;;;5133829;27;20177;-50
2021/12/17 16:31:07;;;;;;;2.53;2.20;;;3.40;99.90;;;;;;5109797;27;20176;-55
2021/12/17 16:33:33;;;;;;;2.87;2.67;;;3.40;99.90;;;;;;5113045;27;20198;-56